Time;durP1;ratioP1;P1;durP2;ratioP2;P2;SDS_P1;SDS_P2;PMS_P1;PMS_P2;Temp;Humidity;BMP_temperature;BMP_pressure;BME280_temperature;BME280_humidity;BME280_pressure;Samples;Min_cycle;Max_cycle;Signal;HPM_P1;HPM_P2
2021/12/07 05:15:16;;;;;;;39.13;18.98;;;;;;;-1.84;99.34;99823.94;5546413;32;34206;-84
2021/12/07 05:18:38;;;;;;;41.15;19.23;;;;;;;-1.80;99.32;99822.16;5546478;32;34602;-84
2021/12/07 05:26:11;;;;;;;39.88;18.85;;;;;;;-1.79;98.20;99818.69;5518502;32;35168;-88
2021/12/07 05:38:33;;;;;;;;;;;;;;;-1.88;98.92;99831.78;5546911;32;33428;-85
2021/12/07 05:41:36;;;;;;;35.53;17.90;;;;;;;-1.90;98.40;99822.22;5547083;32;34566;-84
2021/12/07 05:44:38;;;;;;;38.97;18.12;;;;;;;-1.90;98.55;99821.38;5551753;32;33998;-84
2021/12/07 05:47:42;;;;;;;39.17;19.42;;;;;;;-1.98;98.87;99818.81;5555236;32;34790;-84
2021/12/07 05:50:45;;;;;;;39.70;18.45;;;;;;;-1.97;98.88;99817.94;5546336;32;34065;-84
2021/12/07 05:53:47;;;;;;;36.78;17.55;;;;;;;-1.94;98.58;99814.47;5548527;32;34529;-84
2021/12/07 05:56:50;;;;;;;36.75;18.15;;;;;;;-1.91;98.71;99817.06;5559663;32;34230;-84
2021/12/07 05:59:53;;;;;;;37.50;17.45;;;;;;;-1.99;98.91;99805.84;5551736;32;35056;-84
2021/12/07 06:03:01;;;;;;;40.10;18.10;;;;;;;-1.94;98.85;99809.28;5549497;32;34169;-84
2021/12/07 06:06:04;;;;;;;36.30;18.35;;;;;;;-1.96;98.46;99811.88;5542663;32;33950;-84
2021/12/07 06:09:07;;;;;;;30.98;16.12;;;;;;;-1.99;98.67;99809.31;5533175;32;35060;-84
2021/12/07 06:12:10;;;;;;;30.85;15.95;;;;;;;-1.92;98.43;99812.72;5527388;32;34712;-84
2021/12/07 06:15:17;;;;;;;33.55;17.90;;;;;;;-1.87;98.17;99805.75;5526017;32;34419;-84
2021/12/07 06:18:20;;;;;;;34.00;16.73;;;;;;;-1.94;98.18;99806.66;5525577;32;33869;-84
2021/12/07 06:21:23;;;;;;;37.55;18.50;;;;;;;-1.99;98.60;99811.91;5520173;32;34235;-84
2021/12/07 06:24:26;;;;;;;36.78;17.27;;;;;;;-2.00;98.71;99811.91;5514041;32;34047;-85
2021/12/07 06:27:29;;;;;;;35.40;18.58;;;;;;;-1.91;98.10;99807.50;5512716;32;34451;-85
2021/12/07 06:30:32;;;;;;;37.00;18.48;;;;;;;-1.96;97.96;99813.62;5513586;32;34310;-84
2021/12/07 06:33:34;;;;;;;34.50;18.52;;;;;;;-2.01;98.37;99805.00;5514459;32;33984;-84
2021/12/07 06:36:39;;;;;;;36.85;18.05;;;;;;;-1.98;98.25;99808.44;5513913;32;35337;-84
2021/12/07 06:39:41;;;;;;;38.25;17.77;;;;;;;-2.02;98.21;99809.31;5512790;32;33865;-84
2021/12/07 06:42:44;;;;;;;41.85;19.27;;;;;;;-1.98;98.07;99802.34;5512316;32;34039;-84
2021/12/07 06:45:47;;;;;;;40.33;19.05;;;;;;;-2.00;98.28;99805.00;5513891;32;33737;-84
2021/12/07 06:48:50;;;;;;;40.83;18.85;;;;;;;-2.00;98.21;99812.78;5513518;32;34333;-88
2021/12/07 06:51:53;;;;;;;43.25;18.27;;;;;;;-1.99;97.92;99811.91;5512836;32;33743;-85
2021/12/07 06:54:58;;;;;;;34.42;17.95;;;;;;;-1.96;97.83;99811.88;5525028;32;34351;-85
2021/12/07 06:58:01;;;;;;;35.42;18.33;;;;;;;-1.93;97.84;99817.06;5532172;32;33869;-85
2021/12/07 07:01:06;;;;;;;34.65;17.08;;;;;;;-2.00;97.97;99818.00;5538468;32;33791;-85
2021/12/07 07:04:12;;;;;;;36.97;18.25;;;;;;;-1.97;98.00;99820.56;5540942;32;33857;-84
2021/12/07 07:07:22;;;;;;;37.00;19.37;;;;;;;-1.74;96.97;99822.12;5533474;32;33862;-85
2021/12/07 07:10:25;;;;;;;36.47;17.83;;;;;;;-1.87;96.97;99823.09;5533696;32;34105;-85
2021/12/07 07:13:28;;;;;;;37.47;18.35;;;;;;;-1.91;97.56;99819.66;5533039;32;34218;-85
2021/12/07 07:16:31;;;;;;;37.97;18.77;;;;;;;-1.81;96.85;99823.91;5530726;32;33917;-86
2021/12/07 07:19:34;;;;;;;36.92;17.58;;;;;;;-1.78;96.72;99823.00;5532198;32;34022;-85
2021/12/07 07:22:38;;;;;;;38.38;19.00;;;;;;;-1.82;96.53;99822.19;5543566;32;33919;-85
2021/12/07 07:25:40;;;;;;;36.97;18.05;;;;;;;-1.80;96.41;99832.56;5534887;32;35910;-85
2021/12/07 07:28:43;;;;;;;40.70;19.25;;;;;;;-1.77;96.04;99832.53;5524956;32;33601;-85
2021/12/07 07:31:46;;;;;;;36.85;17.92;;;;;;;-1.76;96.22;99829.94;5530501;32;34034;-86
2021/12/07 07:34:49;;;;;;;36.63;18.65;;;;;;;-1.74;96.27;99836.84;5521972;32;33858;-83
2021/12/07 07:37:52;;;;;;;36.78;18.08;;;;;;;-1.63;95.52;99840.22;5517085;32;34354;-84
2021/12/07 07:40:55;;;;;;;33.83;17.48;;;;;;;-1.51;94.81;99845.34;5523561;32;34162;-84
2021/12/07 07:43:58;;;;;;;37.08;17.27;;;;;;;-1.50;94.85;99835.81;5522029;32;34303;-83
2021/12/07 07:47:01;;;;;;;41.05;17.73;;;;;;;-1.51;94.47;99837.53;5529048;32;34321;-84
2021/12/07 07:50:06;;;;;;;36.70;17.90;;;;;;;-1.40;94.18;99837.41;5515571;32;34163;-83
2021/12/07 07:53:09;;;;;;;36.13;18.05;;;;;;;-1.30;93.68;99839.94;5515320;32;34559;-84
2021/12/07 07:56:12;;;;;;;39.58;17.77;;;;;;;-1.18;92.82;99841.56;5518850;32;33948;-83
2021/12/07 07:59:14;;;;;;;40.30;17.33;;;;;;;-1.21;92.21;99845.06;5522527;32;34396;-83
2021/12/07 08:02:18;;;;;;;34.97;18.05;;;;;;;-1.19;92.56;99855.47;5528815;32;33924;-84
2021/12/07 08:05:21;;;;;;;32.22;17.05;;;;;;;-1.00;91.88;99853.53;5527419;32;34140;-84
2021/12/07 08:08:29;;;;;;;37.90;18.08;;;;;;;-1.13;92.05;99852.78;5523398;32;33798;-85
2021/12/07 08:11:33;;;;;;;37.08;18.62;;;;;;;-1.20;92.83;99853.75;5526145;32;33514;-84
2021/12/07 08:14:35;;;;;;;35.63;17.25;;;;;;;-1.07;92.75;99860.53;5520909;32;33725;-85
2021/12/07 08:17:38;;;;;;;39.38;18.70;;;;;;;-1.14;91.44;99862.38;5531310;32;33924;-84
2021/12/07 08:20:42;;;;;;;37.72;17.30;;;;;;;-1.25;92.41;99861.59;5529431;32;33679;-84
2021/12/07 08:23:46;;;;;;;33.33;17.67;;;;;;;-1.13;91.69;99860.59;5523302;32;34259;-84
2021/12/07 08:26:48;;;;;;;36.55;18.40;;;;;;;-1.17;91.84;99862.38;5527285;32;34345;-85
2021/12/07 08:29:51;;;;;;;31.87;17.23;;;;;;;-1.15;91.75;99864.97;5521736;32;34574;-85
2021/12/07 08:32:54;;;;;;;35.05;17.45;;;;;;;-1.03;90.90;99863.97;5533950;32;34043;-85
2021/12/07 08:35:58;;;;;;;33.88;16.92;;;;;;;-0.97;91.18;99870.00;5523376;32;33961;-85
2021/12/07 08:39:10;;;;;;;38.55;18.55;;;;;;;-0.86;89.93;99869.03;5533584;32;33918;-86
2021/12/07 08:42:17;;;;;;;36.75;17.58;;;;;;;-0.82;90.13;99874.19;5534973;32;34429;-86
2021/12/07 08:45:22;;;;;;;36.38;17.70;;;;;;;-0.58;88.86;99864.37;5533829;32;34070;-85
2021/12/07 08:48:26;;;;;;;36.80;17.65;;;;;;;-0.40;88.07;99867.62;5534417;32;34157;-89
2021/12/07 08:51:28;;;;;;;34.58;17.50;;;;;;;-0.34;87.87;99854.50;5527234;32;33911;-90
2021/12/07 08:59:38;;;;;;;32.78;17.55;;;;;;;-0.22;87.18;99848.25;5518018;32;33863;-90
2021/12/07 09:01:22;;;;;;;37.58;17.83;;;;;;;-0.12;86.32;99845.50;5533319;32;34258;-85
2021/12/07 09:04:27;;;;;;;36.85;18.20;;;;;;;-0.32;87.00;99844.91;5530391;32;34014;-84
2021/12/07 09:07:30;;;;;;;35.70;16.95;;;;;;;-0.28;86.84;99837.91;5535208;32;34311;-85
2021/12/07 09:10:33;;;;;;;36.55;18.73;;;;;;;-0.53;88.19;99829.56;5534875;32;34309;-85
2021/12/07 09:13:37;;;;;;;35.95;18.52;;;;;;;-0.48;87.93;99823.41;5530729;32;34273;-84
2021/12/07 09:16:42;;;;;;;38.05;17.95;;;;;;;-0.22;87.31;99824.81;5521073;32;34867;-84
2021/12/07 09:19:45;;;;;;;37.63;17.80;;;;;;;-0.15;86.90;99830.81;5534981;32;33904;-86
2021/12/07 09:22:48;;;;;;;35.65;17.70;;;;;;;0.90;83.87;99829.97;5536017;32;34166;-85
2021/12/07 09:25:52;;;;;;;33.70;17.85;;;;;;;2.40;76.09;99836.34;5532790;32;33631;-85
2021/12/07 09:28:57;;;;;;;34.13;17.27;;;;;;;4.06;67.44;99824.75;5536392;32;33639;-85
2021/12/07 09:32:01;;;;;;;34.95;17.50;;;;;;;3.16;70.05;99822.19;5537298;32;34247;-85
2021/12/07 09:35:07;;;;;;;32.67;16.33;;;;;;;3.21;70.70;99810.66;5530753;32;35845;-86
2021/12/07 09:38:12;;;;;;;32.97;17.55;;;;;;;3.40;69.93;99806.62;5539471;32;34512;-86
2021/12/07 09:41:17;;;;;;;34.25;17.90;;;;;;;2.72;71.96;99818.13;5516661;32;33380;-86
2021/12/07 09:44:20;;;;;;;36.00;18.40;;;;;;;2.42;73.77;99810.97;5523520;32;34113;-84
2021/12/07 09:47:24;;;;;;;34.97;17.40;;;;;;;1.96;75.52;99801.66;5537138;32;34127;-84
2021/12/07 09:50:29;;;;;;;32.83;17.62;;;;;;;4.93;65.73;99792.12;5536497;32;33638;-82
2021/12/07 09:53:34;;;;;;;33.17;16.83;;;;;;;9.27;51.83;99780.09;5539098;32;34130;-83
2021/12/07 09:56:43;;;;;;;35.00;18.00;;;;;;;9.83;46.58;99769.97;5545324;32;34062;-82
2021/12/07 09:59:46;;;;;;;31.12;17.77;;;;;;;7.97;51.06;99775.16;5537806;32;34172;-84
2021/12/07 10:02:51;;;;;;;30.90;17.50;;;;;;;5.59;58.37;99782.72;5534059;32;34995;-84
2021/12/07 10:05:54;;;;;;;32.20;17.80;;;;;;;4.69;62.77;99787.66;5524853;32;34441;-84
2021/12/07 10:08:58;;;;;;;33.90;17.23;;;;;;;3.88;65.73;99792.09;5521167;32;33569;-85
2021/12/07 10:12:01;;;;;;;31.95;17.05;;;;;;;3.75;67.27;99783.75;5520952;32;34229;-85
2021/12/07 10:15:07;;;;;;;38.10;18.25;;;;;;;3.12;69.10;99787.31;5521597;32;34108;-86
2021/12/07 10:18:13;;;;;;;35.40;18.08;;;;;;;2.79;71.20;99777.75;5527147;32;34825;-91
2021/12/07 10:21:39;;;;;;;36.22;17.75;;;;;;;2.49;72.47;99782.91;5526311;32;34730;-85
2021/12/07 10:24:48;;;;;;;32.60;18.40;;;;;;;2.25;73.50;99777.38;5558049;32;34242;-85
2021/12/07 10:27:51;;;;;;;35.58;18.02;;;;;;;2.45;73.60;99777.78;5558001;32;34557;-86
2021/12/07 10:30:56;;;;;;;33.78;17.92;;;;;;;2.48;73.11;99775.94;5553166;32;33848;-87
2021/12/07 10:34:03;;;;;;;35.75;17.98;;;;;;;2.23;74.36;99775.69;5553940;32;34042;-88
2021/12/07 10:37:13;;;;;;;33.33;17.37;;;;;;;2.16;74.82;99767.13;5547072;32;34590;-87
2021/12/07 10:40:16;;;;;;;35.67;18.58;;;;;;;1.99;75.90;99767.53;5556200;32;33922;-85
2021/12/07 10:43:49;;;;;;;35.58;18.10;;;;;;;2.42;74.34;99760.41;5559189;32;34174;-85
2021/12/07 10:47:01;;;;;;;36.40;18.15;;;;;;;2.07;75.60;99770.84;5548057;32;35107;-87
2021/12/07 10:50:09;;;;;;;37.13;18.70;;;;;;;2.09;75.56;99758.59;5542798;32;33769;-87
2021/12/07 10:53:14;;;;;;;37.40;19.20;;;;;;;2.10;75.91;99752.44;5553230;32;33532;-85
2021/12/07 10:56:36;;;;;;;38.45;19.73;;;;;;;2.34;75.34;99754.47;5543145;32;34537;-85
2021/12/07 11:03:01;;;;;;;37.53;18.73;;;;;;;2.50;74.98;99755.81;5537794;32;33399;-90
2021/12/07 11:06:07;;;;;;;34.13;17.45;;;;;;;2.52;74.86;99758.41;5555361;32;34168;-91
2021/12/07 11:09:09;;;;;;;34.28;17.48;;;;;;;2.42;74.91;99752.53;5547123;32;34413;-87
2021/12/07 11:12:15;;;;;;;37.55;18.23;;;;;;;3.08;73.12;99752.47;5556153;32;33827;-87
2021/12/07 11:15:25;;;;;;;37.42;18.15;;;;;;;4.20;67.45;99747.31;5557564;32;33925;-87
2021/12/07 11:18:33;;;;;;;36.38;18.42;;;;;;;3.77;69.54;99748.69;5545757;32;34143;-87
2021/12/07 11:21:42;;;;;;;35.97;18.33;;;;;;;2.98;71.60;99753.66;5547836;32;34512;-88
2021/12/07 11:24:46;;;;;;;38.20;18.58;;;;;;;2.80;73.84;99747.16;5539825;32;34160;-88
2021/12/07 11:31:33;;;;;;;37.10;19.30;;;;;;;4.53;67.50;99741.84;5544142;32;34329;-86
2021/12/07 11:34:41;;;;;;;37.38;18.70;;;;;;;4.13;67.50;99736.19;5534536;32;34941;-86
2021/12/07 11:37:45;;;;;;;38.03;19.42;;;;;;;2.80;73.41;99737.56;5535699;32;34705;-86
2021/12/07 11:40:48;;;;;;;36.97;19.05;;;;;;;2.48;75.20;99739.28;5533761;32;34091;-86
2021/12/07 11:43:57;;;;;;;38.47;18.67;;;;;;;1.95;76.34;99745.84;5535583;32;33769;-87
2021/12/07 11:47:03;;;;;;;39.17;19.83;;;;;;;1.81;77.93;99734.84;5534561;32;33900;-87
2021/12/07 11:50:28;;;;;;;38.33;18.83;;;;;;;1.36;79.55;99749.81;5537835;32;34469;-87
2021/12/07 11:53:31;;;;;;;39.90;20.90;;;;;;;1.27;80.77;99752.59;5538434;32;34109;-86
2021/12/07 11:56:34;;;;;;;37.17;19.35;;;;;;;1.10;82.12;99748.59;5545349;32;34610;-86
2021/12/07 11:59:39;;;;;;;45.55;21.42;;;;;;;1.19;82.33;99751.03;5542484;32;33966;-86
2021/12/07 12:02:43;;;;;;;39.75;19.00;;;;;;;1.63;80.90;99750.06;5551410;32;33589;-91
2021/12/07 12:05:47;;;;;;;40.00;20.15;;;;;;;1.16;82.50;99750.22;5545323;32;33595;-91
2021/12/07 12:08:50;;;;;;;40.90;19.45;;;;;;;1.19;82.82;99732.72;5531670;32;33959;-92
2021/12/07 12:12:04;;;;;;;40.47;19.33;;;;;;;1.50;81.38;99743.41;5531552;32;33678;-88
2021/12/07 12:15:50;;;;;;;38.28;19.83;;;;;;;1.11;82.21;99747.69;5530568;32;34295;-88
2021/12/07 12:18:58;;;;;;;36.22;18.15;;;;;;;0.89;83.19;99740.31;5536867;32;33899;-87
2021/12/07 12:22:14;;;;;;;42.30;20.08;;;;;;;0.95;83.37;99736.69;5558743;32;34283;-86
2021/12/07 12:25:26;;;;;;;41.83;19.45;;;;;;;1.26;82.56;99732.59;5556041;32;34278;-85
2021/12/07 12:28:48;;;;;;;38.28;19.60;;;;;;;1.30;81.61;99736.84;5545201;32;34962;-86
2021/12/07 12:31:57;;;;;;;40.00;19.52;;;;;;;1.14;82.46;99742.41;5551319;32;34297;-85
2021/12/07 12:35:00;;;;;;;38.60;18.37;;;;;;;1.29;82.04;99732.53;5550402;32;34555;-85
2021/12/07 12:38:15;;;;;;;40.90;18.25;;;;;;;1.10;83.15;99737.28;5569062;32;34745;-85
2021/12/07 12:41:17;;;;;;;41.25;18.87;;;;;;;1.26;82.87;99735.22;5569865;32;34427;-86
2021/12/07 12:44:25;;;;;;;43.08;19.83;;;;;;;1.18;83.06;99745.81;5551500;32;34313;-85
2021/12/07 12:47:30;;;;;;;40.40;18.62;;;;;;;1.14;82.88;99755.47;5556202;32;34114;-86
2021/12/07 12:50:46;;;;;;;41.63;19.27;;;;;;;1.09;83.58;99752.09;5563132;32;35107;-91
2021/12/07 12:53:51;;;;;;;42.20;20.33;;;;;;;1.21;83.42;99759.69;5563020;32;34277;-88
2021/12/07 12:57:10;;;;;;;41.10;19.45;;;;;;;1.11;83.69;99755.53;5574344;32;34688;-87
2021/12/07 13:00:13;;;;;;;41.63;19.75;;;;;;;0.92;84.14;99766.34;5565658;32;34054;-87
2021/12/07 13:04:04;;;;;;;40.00;19.52;;;;;;;1.03;84.47;99757.44;5565181;32;34557;-88
2021/12/07 13:10:14;;;;;;;44.08;19.67;;;;;;;0.93;85.19;99775.06;5554627;32;34787;-88
2021/12/07 13:13:36;;;;;;;39.72;18.90;;;;;;;0.83;85.48;99770.88;5538893;32;34528;-87
2021/12/07 13:16:48;;;;;;;44.10;20.27;;;;;;;0.93;85.58;99765.47;5562600;32;35191;-88
2021/12/07 13:20:06;;;;;;;44.75;19.98;;;;;;;0.79;86.05;99770.09;5552649;32;35017;-87
2021/12/07 13:23:12;;;;;;;42.58;20.20;;;;;;;0.74;86.37;99769.31;5551925;32;34061;-86
2021/12/07 13:26:17;;;;;;;47.83;19.98;;;;;;;0.62;87.08;99773.03;5549077;32;33630;-85
2021/12/07 13:29:23;;;;;;;41.80;20.25;;;;;;;0.65;87.20;99767.72;5551933;32;33842;-86
2021/12/07 13:32:28;;;;;;;46.50;20.45;;;;;;;0.65;87.60;99757.28;5551620;32;34095;-91
2021/12/07 13:35:32;;;;;;;47.58;20.25;;;;;;;0.63;87.81;99757.34;5559348;32;33887;-89
2021/12/07 13:38:35;;;;;;;42.30;20.65;;;;;;;0.61;88.00;99766.94;5548879;32;34674;-86
2021/12/07 13:42:00;;;;;;;44.97;20.77;;;;;;;0.64;87.78;99771.25;5572564;32;33897;-86
2021/12/07 13:45:09;;;;;;;41.22;20.50;;;;;;;0.64;88.20;99779.06;5567677;32;34265;-85
2021/12/07 13:48:18;;;;;;;46.58;20.95;;;;;;;0.67;88.05;99779.03;5550720;32;33704;-85
2021/12/07 13:51:21;;;;;;;45.22;20.48;;;;;;;0.73;88.33;99785.88;5548659;32;34589;-85
2021/12/07 13:54:24;;;;;;;45.35;20.45;;;;;;;0.64;88.72;99789.50;5558148;32;34363;-86
2021/12/07 13:57:35;;;;;;;49.30;21.67;;;;;;;0.64;88.81;99789.50;5561220;32;34260;-86
2021/12/07 14:00:41;;;;;;;46.70;20.83;;;;;;;0.74;88.72;99795.41;5559122;32;34875;-87
2021/12/07 14:03:47;;;;;;;46.85;21.80;;;;;;;0.69;88.45;99797.28;5559411;32;33885;-86
2021/12/07 14:06:51;;;;;;;43.53;21.80;;;;;;;0.57;89.30;99800.97;5560269;32;34277;-86
2021/12/07 14:09:54;;;;;;;53.00;21.08;;;;;;;0.60;89.29;99796.53;5561191;32;34325;-86
2021/12/07 14:13:11;;;;;;;45.08;20.35;;;;;;;0.52;89.43;99801.88;5524387;32;34261;-86
2021/12/07 14:16:59;;;;;;;43.47;20.98;;;;;;;0.55;89.55;99807.97;5522361;32;32701;-86
2021/12/07 14:20:06;;;;;;;42.97;20.37;;;;;;;0.56;89.39;99801.84;5524805;32;34595;-87
2021/12/07 14:23:37;;;;;;;48.30;20.75;;;;;;;0.72;88.81;99805.03;5527233;32;34541;-88
2021/12/07 14:26:39;;;;;;;52.75;21.67;;;;;;;0.58;89.43;99808.78;5518123;32;33886;-87
2021/12/07 14:29:42;;;;;;;46.40;22.13;;;;;;;0.59;89.02;99813.09;5518309;32;33983;-87
2021/12/07 14:32:48;;;;;;;48.90;21.00;;;;;;;0.56;89.23;99813.16;5525162;32;34225;-86
2021/12/07 14:35:58;;;;;;;44.08;20.67;;;;;;;0.46;89.89;99815.03;5526948;32;35319;-86
2021/12/07 14:39:10;;;;;;;46.80;20.23;;;;;;;0.47;89.99;99819.41;5522223;32;34118;-86
2021/12/07 14:42:17;;;;;;;42.97;19.40;;;;;;;0.33;90.73;99817.03;5538668;32;34298;-85
2021/12/07 14:45:20;;;;;;;47.00;21.33;;;;;;;0.26;90.89;99818.84;5541619;32;34521;-85
2021/12/07 14:48:24;;;;;;;46.35;21.08;;;;;;;0.27;90.74;99817.13;5545335;32;34612;-85
2021/12/07 14:51:29;;;;;;;47.55;22.02;;;;;;;0.28;90.87;99820.56;5543320;32;36055;-86
2021/12/07 14:54:46;;;;;;;45.58;20.85;;;;;;;0.25;91.01;99826.72;5541243;32;34087;-85
2021/12/07 14:57:53;;;;;;;47.15;21.20;;;;;;;0.24;90.90;99824.97;5541294;32;33875;-84
2021/12/07 15:01:01;;;;;;;48.97;21.50;;;;;;;0.13;91.39;99826.03;5545523;32;33953;-85
2021/12/07 15:04:09;;;;;;;48.53;20.83;;;;;;;0.16;91.13;99830.34;5544990;32;34068;-85
2021/12/07 15:07:17;;;;;;;46.40;20.30;;;;;;;0.12;91.17;99831.25;5542894;32;34456;-86
2021/12/07 15:10:21;;;;;;;49.65;21.20;;;;;;;0.05;91.87;99833.09;5553410;32;34252;-86
2021/12/07 15:13:26;;;;;;;46.10;20.23;;;;;;;0.04;91.85;99839.19;5560059;32;34134;-86
2021/12/07 15:16:30;;;;;;;49.75;20.85;;;;;;;0.04;91.69;99839.19;5564445;32;34230;-87
2021/12/07 15:19:37;;;;;;;42.33;20.50;;;;;;;-0.07;92.39;99844.56;5562799;32;35148;-87
2021/12/07 15:22:43;;;;;;;42.50;19.98;;;;;;;-0.05;92.41;99847.19;5562010;32;34459;-86
2021/12/07 15:25:54;;;;;;;47.75;20.65;;;;;;;-0.09;92.68;99850.69;5559003;32;34595;-87
2021/12/07 15:29:28;;;;;;;43.85;20.15;;;;;;;-0.12;93.02;99851.59;5545834;32;33678;-92
2021/12/07 15:32:30;;;;;;;42.53;20.00;;;;;;;-0.17;93.13;99843.84;5557435;32;34170;-87
2021/12/07 15:35:33;;;;;;;47.97;20.70;;;;;;;-0.15;93.19;99859.47;5558099;32;34612;-88
2021/12/07 15:38:36;;;;;;;44.05;19.33;;;;;;;-0.20;92.82;99854.31;5556098;32;34059;-87
2021/12/07 15:41:58;;;;;;;45.08;20.17;;;;;;;-0.29;93.34;99857.06;5557781;32;34456;-87
2021/12/07 15:45:06;;;;;;;48.65;21.20;;;;;;;-0.33;93.61;99861.44;5557171;32;34418;-88
2021/12/07 15:48:10;;;;;;;43.33;19.90;;;;;;;-0.30;93.19;99852.72;5554712;32;34048;-86
2021/12/07 15:51:13;;;;;;;44.72;20.75;;;;;;;-0.36;93.13;99861.47;5559117;32;35385;-88
2021/12/07 15:54:16;;;;;;;48.15;21.58;;;;;;;-0.41;93.65;99856.31;5559017;32;34174;-87
2021/12/07 15:57:19;;;;;;;45.67;21.05;;;;;;;-0.39;93.42;99861.53;5563762;32;34897;-87
2021/12/07 16:00:30;;;;;;;49.03;20.83;;;;;;;-0.44;93.63;99860.72;5563349;32;34357;-85
2021/12/07 16:03:43;;;;;;;49.78;20.27;;;;;;;-0.44;93.80;99864.16;5557783;32;34179;-86
2021/12/07 16:06:45;;;;;;;49.47;21.27;;;;;;;-0.40;93.30;99865.03;5556040;32;34788;-86
2021/12/07 16:10:09;;;;;;;47.47;20.77;;;;;;;-0.52;93.94;99859.97;5556586;32;33786;-86
2021/12/07 16:13:17;;;;;;;43.70;20.15;;;;;;;-0.58;94.24;99856.53;5557792;32;34033;-86
2021/12/07 16:16:25;;;;;;;45.35;20.30;;;;;;;-0.66;94.74;99854.91;5562333;32;34292;-86
2021/12/07 16:19:28;;;;;;;43.45;20.00;;;;;;;-0.61;94.51;99856.56;5561439;32;34998;-86
2021/12/07 16:22:40;;;;;;;48.75;21.00;;;;;;;-0.70;94.97;99859.31;5560099;32;34268;-86
2021/12/07 16:25:50;;;;;;;47.28;21.90;;;;;;;-0.74;95.07;99865.41;5559972;32;33877;-86
2021/12/07 16:29:11;;;;;;;54.25;22.85;;;;;;;-0.71;94.96;99865.38;5560172;32;33940;-86
2021/12/07 16:32:17;;;;;;;48.53;21.77;;;;;;;-0.76;95.13;99869.78;5559421;32;35583;-86
2021/12/07 16:35:25;;;;;;;51.50;22.75;;;;;;;-0.82;95.23;99868.09;5558209;32;34333;-86
